Terminal Aerodrome Forecast
Issued by NWS Charleston, WV

Current Version | Previous Version | Text Only | Print | Product List | Glossary Off
Versions: 1 2 3 4 5 6 7 8 9 10 11 12 13 14 15 16 17 18 19 20 21 22

000
FTUS41 KRLX 060700 AAA
TAFBKW
TAF AMD
KBKW 060744Z 0608/0706 14003KT P6SM BKN080
     FM061400 32003KT P6SM SCT080
     FM061700 36005KT P6SM VCTS BKN045CB
     FM070100 VRB02KT P6SM BKN050
     FM070500 00000KT P6SM SCT050=

USA.gov is the U.S. government's official web portal to all federal, state and local government web resources and services.